sensor_id;sensor_type;location;lat;lon;timestamp;P1;durP1;ratioP1;P2;durP2;ratioP2
22332;SDS011;11334;36.986;-121.936;2022-08-16T00:02:03;11.48;;;8.25;;
22332;SDS011;11334;36.986;-121.936;2022-08-16T00:04:31;13.40;;;7.03;;
22332;SDS011;11334;36.986;-121.936;2022-08-16T00:06:57;12.82;;;6.75;;
22332;SDS011;11334;36.986;-121.936;2022-08-16T00:09:24;13.32;;;7.22;;
22332;SDS011;11334;36.986;-121.936;2022-08-16T00:11:50;12.55;;;7.63;;
22332;SDS011;11334;36.986;-121.936;2022-08-16T00:14:18;10.00;;;6.13;;
22332;SDS011;11334;36.986;-121.936;2022-08-16T00:16:47;9.45;;;6.03;;
22332;SDS011;11334;36.986;-121.936;2022-08-16T00:19:25;13.38;;;6.80;;
22332;SDS011;11334;36.986;-121.936;2022-08-16T00:21:54;8.82;;;6.05;;
22332;SDS011;11334;36.986;-121.936;2022-08-16T00:24:22;11.70;;;7.22;;
22332;SDS011;11334;36.986;-121.936;2022-08-16T00:26:51;10.52;;;6.97;;
22332;SDS011;11334;36.986;-121.936;2022-08-16T00:29:18;10.30;;;5.93;;
22332;SDS011;11334;36.986;-121.936;2022-08-16T00:31:45;11.43;;;5.80;;
22332;SDS011;11334;36.986;-121.936;2022-08-16T00:34:15;8.55;;;5.22;;
22332;SDS011;11334;36.986;-121.936;2022-08-16T00:36:43;8.85;;;6.32;;
22332;SDS011;11334;36.986;-121.936;2022-08-16T00:39:13;8.30;;;5.65;;
22332;SDS011;11334;36.986;-121.936;2022-08-16T00:41:40;11.35;;;6.53;;
22332;SDS011;11334;36.986;-121.936;2022-08-16T00:44:08;10.90;;;6.40;;
22332;SDS011;11334;36.986;-121.936;2022-08-16T00:46:38;8.55;;;5.60;;
22332;SDS011;11334;36.986;-121.936;2022-08-16T00:49:11;8.10;;;5.40;;
22332;SDS011;11334;36.986;-121.936;2022-08-16T00:51:39;9.20;;;5.60;;
22332;SDS011;11334;36.986;-121.936;2022-08-16T00:54:06;10.48;;;5.78;;
22332;SDS011;11334;36.986;-121.936;2022-08-16T00:56:35;9.60;;;5.88;;
22332;SDS011;11334;36.986;-121.936;2022-08-16T00:59:05;7.80;;;5.72;;
22332;SDS011;11334;36.986;-121.936;2022-08-16T01:01:33;8.43;;;5.25;;
22332;SDS011;11334;36.986;-121.936;2022-08-16T01:03:59;10.18;;;5.35;;
22332;SDS011;11334;36.986;-121.936;2022-08-16T01:06:26;7.88;;;5.50;;
22332;SDS011;11334;36.986;-121.936;2022-08-16T01:08:54;12.50;;;5.88;;
22332;SDS011;11334;36.986;-121.936;2022-08-16T01:11:23;8.30;;;5.43;;
22332;SDS011;11334;36.986;-121.936;2022-08-16T01:13:51;9.93;;;5.85;;
22332;SDS011;11334;36.986;-121.936;2022-08-16T01:16:22;8.45;;;5.82;;
22332;SDS011;11334;36.986;-121.936;2022-08-16T01:21:58;8.55;;;5.53;;
22332;SDS011;11334;36.986;-121.936;2022-08-16T01:24:36;7.43;;;5.65;;
22332;SDS011;11334;36.986;-121.936;2022-08-16T01:27:11;11.30;;;6.13;;
22332;SDS011;11334;36.986;-121.936;2022-08-16T01:29:48;9.00;;;6.30;;
22332;SDS011;11334;36.986;-121.936;2022-08-16T01:32:21;6.07;;;5.00;;
22332;SDS011;11334;36.986;-121.936;2022-08-16T01:34:47;9.75;;;5.63;;
22332;SDS011;11334;36.986;-121.936;2022-08-16T01:37:13;8.80;;;5.43;;
22332;SDS011;11334;36.986;-121.936;2022-08-16T01:39:41;7.25;;;4.78;;
22332;SDS011;11334;36.986;-121.936;2022-08-16T01:42:08;9.95;;;6.07;;
22332;SDS011;11334;36.986;-121.936;2022-08-16T01:44:35;9.18;;;5.28;;
22332;SDS011;11334;36.986;-121.936;2022-08-16T01:47:03;8.32;;;5.13;;
22332;SDS011;11334;36.986;-121.936;2022-08-16T01:49:33;7.15;;;4.78;;
22332;SDS011;11334;36.986;-121.936;2022-08-16T01:52:06;8.63;;;5.80;;
22332;SDS011;11334;36.986;-121.936;2022-08-16T01:54:36;6.28;;;4.78;;
22332;SDS011;11334;36.986;-121.936;2022-08-16T01:57:04;6.97;;;4.70;;
22332;SDS011;11334;36.986;-121.936;2022-08-16T01:59:31;12.05;;;5.40;;
22332;SDS011;11334;36.986;-121.936;2022-08-16T02:01:59;8.05;;;5.20;;
22332;SDS011;11334;36.986;-121.936;2022-08-16T02:04:25;5.78;;;4.15;;
22332;SDS011;11334;36.986;-121.936;2022-08-16T02:06:52;6.90;;;5.00;;
22332;SDS011;11334;36.986;-121.936;2022-08-16T02:09:22;7.57;;;4.88;;
22332;SDS011;11334;36.986;-121.936;2022-08-16T02:11:51;5.50;;;4.82;;
22332;SDS011;11334;36.986;-121.936;2022-08-16T02:14:22;5.47;;;4.97;;
22332;SDS011;11334;36.986;-121.936;2022-08-16T02:16:51;6.25;;;4.30;;
22332;SDS011;11334;36.986;-121.936;2022-08-16T02:19:18;7.25;;;4.47;;
22332;SDS011;11334;36.986;-121.936;2022-08-16T02:21:48;5.72;;;3.60;;
22332;SDS011;11334;36.986;-121.936;2022-08-16T02:24:17;5.32;;;4.13;;
22332;SDS011;11334;36.986;-121.936;2022-08-16T02:26:43;5.88;;;4.10;;
22332;SDS011;11334;36.986;-121.936;2022-08-16T02:29:10;7.45;;;4.90;;
22332;SDS011;11334;36.986;-121.936;2022-08-16T02:31:36;8.25;;;5.40;;
22332;SDS011;11334;36.986;-121.936;2022-08-16T02:34:03;7.82;;;5.05;;
22332;SDS011;11334;36.986;-121.936;2022-08-16T02:36:30;6.05;;;4.88;;
22332;SDS011;11334;36.986;-121.936;2022-08-16T02:38:56;6.15;;;5.43;;
22332;SDS011;11334;36.986;-121.936;2022-08-16T02:41:22;6.82;;;5.22;;
22332;SDS011;11334;36.986;-121.936;2022-08-16T02:43:48;8.55;;;5.10;;
22332;SDS011;11334;36.986;-121.936;2022-08-16T02:46:14;5.88;;;4.88;;
22332;SDS011;11334;36.986;-121.936;2022-08-16T02:48:41;8.55;;;5.32;;
22332;SDS011;11334;36.986;-121.936;2022-08-16T02:51:08;9.70;;;5.70;;
22332;SDS011;11334;36.986;-121.936;2022-08-16T02:53:35;7.20;;;4.85;;
22332;SDS011;11334;36.986;-121.936;2022-08-16T02:56:03;9.85;;;6.00;;
22332;SDS011;11334;36.986;-121.936;2022-08-16T02:58:30;13.95;;;6.45;;
22332;SDS011;11334;36.986;-121.936;2022-08-16T03:00:58;12.45;;;6.50;;
22332;SDS011;11334;36.986;-121.936;2022-08-16T03:03:25;11.48;;;5.72;;
22332;SDS011;11334;36.986;-121.936;2022-08-16T03:05:52;10.40;;;6.38;;
22332;SDS011;11334;36.986;-121.936;2022-08-16T03:08:20;9.38;;;5.60;;
22332;SDS011;11334;36.986;-121.936;2022-08-16T03:10:47;9.43;;;5.65;;
22332;SDS011;11334;36.986;-121.936;2022-08-16T03:13:14;8.27;;;5.40;;
22332;SDS011;11334;36.986;-121.936;2022-08-16T03:15:42;8.20;;;5.80;;
22332;SDS011;11334;36.986;-121.936;2022-08-16T03:18:09;11.52;;;6.07;;
22332;SDS011;11334;36.986;-121.936;2022-08-16T03:20:36;9.65;;;6.43;;
22332;SDS011;11334;36.986;-121.936;2022-08-16T03:23:03;10.75;;;6.10;;
22332;SDS011;11334;36.986;-121.936;2022-08-16T03:25:32;11.00;;;6.35;;
22332;SDS011;11334;36.986;-121.936;2022-08-16T03:27:59;12.50;;;6.35;;
22332;SDS011;11334;36.986;-121.936;2022-08-16T03:30:27;12.60;;;7.10;;
22332;SDS011;11334;36.986;-121.936;2022-08-16T03:32:55;12.02;;;6.63;;
22332;SDS011;11334;36.986;-121.936;2022-08-16T03:35:23;13.57;;;7.35;;
22332;SDS011;11334;36.986;-121.936;2022-08-16T03:37:56;13.13;;;7.35;;
22332;SDS011;11334;36.986;-121.936;2022-08-16T03:40:24;19.25;;;7.63;;
22332;SDS011;11334;36.986;-121.936;2022-08-16T03:42:50;12.93;;;7.57;;
22332;SDS011;11334;36.986;-121.936;2022-08-16T03:45:16;10.82;;;6.68;;
22332;SDS011;11334;36.986;-121.936;2022-08-16T03:47:44;13.35;;;6.60;;
22332;SDS011;11334;36.986;-121.936;2022-08-16T03:50:13;17.02;;;8.00;;
22332;SDS011;11334;36.986;-121.936;2022-08-16T03:52:40;13.73;;;7.40;;
22332;SDS011;11334;36.986;-121.936;2022-08-16T03:55:07;15.35;;;7.88;;
22332;SDS011;11334;36.986;-121.936;2022-08-16T03:57:35;13.27;;;7.30;;
22332;SDS011;11334;36.986;-121.936;2022-08-16T04:00:06;12.68;;;7.78;;
22332;SDS011;11334;36.986;-121.936;2022-08-16T04:02:38;12.25;;;8.23;;
22332;SDS011;11334;36.986;-121.936;2022-08-16T04:05:06;13.82;;;8.30;;
22332;SDS011;11334;36.986;-121.936;2022-08-16T04:07:33;14.73;;;8.63;;
22332;SDS011;11334;36.986;-121.936;2022-08-16T04:09:59;14.30;;;7.93;;
22332;SDS011;11334;36.986;-121.936;2022-08-16T04:12:26;12.73;;;8.02;;
22332;SDS011;11334;36.986;-121.936;2022-08-16T04:14:52;15.27;;;7.60;;
22332;SDS011;11334;36.986;-121.936;2022-08-16T04:17:18;10.60;;;8.10;;
22332;SDS011;11334;36.986;-121.936;2022-08-16T04:19:44;14.60;;;8.35;;
22332;SDS011;11334;36.986;-121.936;2022-08-16T04:22:11;14.73;;;8.20;;
22332;SDS011;11334;36.986;-121.936;2022-08-16T04:24:37;18.38;;;8.50;;
22332;SDS011;11334;36.986;-121.936;2022-08-16T04:27:03;17.23;;;8.98;;
22332;SDS011;11334;36.986;-121.936;2022-08-16T04:29:30;15.57;;;9.82;;
22332;SDS011;11334;36.986;-121.936;2022-08-16T04:31:56;14.20;;;8.57;;
22332;SDS011;11334;36.986;-121.936;2022-08-16T04:34:23;13.75;;;8.90;;
22332;SDS011;11334;36.986;-121.936;2022-08-16T04:36:54;11.73;;;8.13;;
22332;SDS011;11334;36.986;-121.936;2022-08-16T04:39:24;14.25;;;9.10;;
22332;SDS011;11334;36.986;-121.936;2022-08-16T04:41:50;17.65;;;9.32;;
22332;SDS011;11334;36.986;-121.936;2022-08-16T04:44:17;22.08;;;9.75;;
22332;SDS011;11334;36.986;-121.936;2022-08-16T04:46:43;19.95;;;9.50;;
22332;SDS011;11334;36.986;-121.936;2022-08-16T04:49:09;16.75;;;9.40;;
22332;SDS011;11334;36.986;-121.936;2022-08-16T04:51:36;13.98;;;9.13;;
22332;SDS011;11334;36.986;-121.936;2022-08-16T04:54:05;13.73;;;8.15;;
22332;SDS011;11334;36.986;-121.936;2022-08-16T04:56:32;13.93;;;8.55;;
22332;SDS011;11334;36.986;-121.936;2022-08-16T04:58:59;15.07;;;7.95;;
22332;SDS011;11334;36.986;-121.936;2022-08-16T05:01:26;19.88;;;9.13;;
22332;SDS011;11334;36.986;-121.936;2022-08-16T05:03:52;17.77;;;8.73;;
22332;SDS011;11334;36.986;-121.936;2022-08-16T05:06:19;12.38;;;7.18;;
22332;SDS011;11334;36.986;-121.936;2022-08-16T05:08:45;12.00;;;7.13;;
22332;SDS011;11334;36.986;-121.936;2022-08-16T05:11:12;11.90;;;7.22;;
22332;SDS011;11334;36.986;-121.936;2022-08-16T05:13:40;10.75;;;7.38;;
22332;SDS011;11334;36.986;-121.936;2022-08-16T05:16:13;12.02;;;7.70;;
22332;SDS011;11334;36.986;-121.936;2022-08-16T05:18:42;13.40;;;7.70;;
22332;SDS011;11334;36.986;-121.936;2022-08-16T05:21:08;19.77;;;8.52;;
22332;SDS011;11334;36.986;-121.936;2022-08-16T05:23:34;14.20;;;6.93;;
22332;SDS011;11334;36.986;-121.936;2022-08-16T05:26:01;18.02;;;8.07;;
22332;SDS011;11334;36.986;-121.936;2022-08-16T05:28:27;12.25;;;7.20;;
22332;SDS011;11334;36.986;-121.936;2022-08-16T05:30:53;17.88;;;7.20;;
22332;SDS011;11334;36.986;-121.936;2022-08-16T05:33:20;19.05;;;8.20;;
22332;SDS011;11334;36.986;-121.936;2022-08-16T05:35:47;19.05;;;8.27;;
22332;SDS011;11334;36.986;-121.936;2022-08-16T05:38:14;11.40;;;6.68;;
22332;SDS011;11334;36.986;-121.936;2022-08-16T05:40:40;7.47;;;5.93;;
22332;SDS011;11334;36.986;-121.936;2022-08-16T05:43:07;21.23;;;7.30;;
22332;SDS011;11334;36.986;-121.936;2022-08-16T05:45:33;33.90;;;7.07;;
22332;SDS011;11334;36.986;-121.936;2022-08-16T05:47:59;11.60;;;6.53;;
22332;SDS011;11334;36.986;-121.936;2022-08-16T05:50:26;12.05;;;6.80;;
22332;SDS011;11334;36.986;-121.936;2022-08-16T05:52:52;10.40;;;6.72;;
22332;SDS011;11334;36.986;-121.936;2022-08-16T05:55:18;13.77;;;7.20;;
22332;SDS011;11334;36.986;-121.936;2022-08-16T05:57:47;9.88;;;7.22;;
22332;SDS011;11334;36.986;-121.936;2022-08-16T06:00:13;13.98;;;7.05;;
22332;SDS011;11334;36.986;-121.936;2022-08-16T06:02:40;18.08;;;7.68;;
22332;SDS011;11334;36.986;-121.936;2022-08-16T06:05:07;12.60;;;8.18;;
22332;SDS011;11334;36.986;-121.936;2022-08-16T06:07:34;13.38;;;7.57;;
22332;SDS011;11334;36.986;-121.936;2022-08-16T06:10:00;16.23;;;8.00;;
22332;SDS011;11334;36.986;-121.936;2022-08-16T06:12:27;11.68;;;6.95;;
22332;SDS011;11334;36.986;-121.936;2022-08-16T06:14:55;10.90;;;7.13;;
22332;SDS011;11334;36.986;-121.936;2022-08-16T06:17:23;15.90;;;6.68;;
22332;SDS011;11334;36.986;-121.936;2022-08-16T06:19:49;11.88;;;6.70;;
22332;SDS011;11334;36.986;-121.936;2022-08-16T06:22:15;14.98;;;6.97;;
22332;SDS011;11334;36.986;-121.936;2022-08-16T06:24:42;13.50;;;7.43;;
22332;SDS011;11334;36.986;-121.936;2022-08-16T06:27:09;11.15;;;6.82;;
22332;SDS011;11334;36.986;-121.936;2022-08-16T06:29:35;12.25;;;7.05;;
22332;SDS011;11334;36.986;-121.936;2022-08-16T06:32:01;9.80;;;6.22;;
22332;SDS011;11334;36.986;-121.936;2022-08-16T06:34:28;9.45;;;6.93;;
22332;SDS011;11334;36.986;-121.936;2022-08-16T06:36:54;9.45;;;6.53;;
22332;SDS011;11334;36.986;-121.936;2022-08-16T06:39:20;8.48;;;5.88;;
22332;SDS011;11334;36.986;-121.936;2022-08-16T06:41:47;9.98;;;6.15;;
22332;SDS011;11334;36.986;-121.936;2022-08-16T06:44:13;8.90;;;5.65;;
22332;SDS011;11334;36.986;-121.936;2022-08-16T06:46:39;8.05;;;5.20;;
22332;SDS011;11334;36.986;-121.936;2022-08-16T06:49:07;11.48;;;6.20;;
22332;SDS011;11334;36.986;-121.936;2022-08-16T06:51:34;9.38;;;5.50;;
22332;SDS011;11334;36.986;-121.936;2022-08-16T06:54:02;8.85;;;5.97;;
22332;SDS011;11334;36.986;-121.936;2022-08-16T06:56:29;9.65;;;5.85;;
22332;SDS011;11334;36.986;-121.936;2022-08-16T06:58:55;8.65;;;5.78;;
22332;SDS011;11334;36.986;-121.936;2022-08-16T07:01:22;11.98;;;6.22;;
22332;SDS011;11334;36.986;-121.936;2022-08-16T07:03:50;9.25;;;5.65;;
22332;SDS011;11334;36.986;-121.936;2022-08-16T07:06:16;9.43;;;5.97;;
22332;SDS011;11334;36.986;-121.936;2022-08-16T07:08:44;8.95;;;5.50;;
22332;SDS011;11334;36.986;-121.936;2022-08-16T07:11:12;9.00;;;5.90;;
22332;SDS011;11334;36.986;-121.936;2022-08-16T07:13:39;13.02;;;6.65;;
22332;SDS011;11334;36.986;-121.936;2022-08-16T07:16:05;13.70;;;7.53;;
22332;SDS011;11334;36.986;-121.936;2022-08-16T07:18:47;14.90;;;7.72;;
22332;SDS011;11334;36.986;-121.936;2022-08-16T07:21:13;16.17;;;8.38;;
22332;SDS011;11334;36.986;-121.936;2022-08-16T07:23:40;17.02;;;8.93;;
22332;SDS011;11334;36.986;-121.936;2022-08-16T07:26:09;13.40;;;8.20;;
22332;SDS011;11334;36.986;-121.936;2022-08-16T07:28:39;11.30;;;8.43;;
22332;SDS011;11334;36.986;-121.936;2022-08-16T07:31:05;16.27;;;8.93;;
22332;SDS011;11334;36.986;-121.936;2022-08-16T07:33:32;13.93;;;8.40;;
22332;SDS011;11334;36.986;-121.936;2022-08-16T07:35:59;15.30;;;8.23;;
22332;SDS011;11334;36.986;-121.936;2022-08-16T07:38:26;8.68;;;7.13;;
22332;SDS011;11334;36.986;-121.936;2022-08-16T07:40:52;10.82;;;8.05;;
22332;SDS011;11334;36.986;-121.936;2022-08-16T07:43:20;10.63;;;8.02;;
22332;SDS011;11334;36.986;-121.936;2022-08-16T07:45:47;11.25;;;7.60;;
22332;SDS011;11334;36.986;-121.936;2022-08-16T07:48:14;9.50;;;6.32;;
22332;SDS011;11334;36.986;-121.936;2022-08-16T07:50:41;8.45;;;6.18;;
22332;SDS011;11334;36.986;-121.936;2022-08-16T07:53:08;7.50;;;5.97;;
22332;SDS011;11334;36.986;-121.936;2022-08-16T07:55:34;10.90;;;5.78;;
22332;SDS011;11334;36.986;-121.936;2022-08-16T07:58:01;6.53;;;5.35;;
22332;SDS011;11334;36.986;-121.936;2022-08-16T08:00:28;10.18;;;5.95;;
22332;SDS011;11334;36.986;-121.936;2022-08-16T08:02:55;7.97;;;5.72;;
22332;SDS011;11334;36.986;-121.936;2022-08-16T08:05:24;9.18;;;5.47;;
22332;SDS011;11334;36.986;-121.936;2022-08-16T08:07:50;8.52;;;5.50;;
22332;SDS011;11334;36.986;-121.936;2022-08-16T08:10:20;7.70;;;5.78;;
22332;SDS011;11334;36.986;-121.936;2022-08-16T08:12:49;12.00;;;6.53;;
22332;SDS011;11334;36.986;-121.936;2022-08-16T08:15:17;9.23;;;5.78;;
22332;SDS011;11334;36.986;-121.936;2022-08-16T08:17:44;9.63;;;6.18;;
22332;SDS011;11334;36.986;-121.936;2022-08-16T08:20:13;10.75;;;5.68;;
22332;SDS011;11334;36.986;-121.936;2022-08-16T08:22:41;9.57;;;6.25;;
22332;SDS011;11334;36.986;-121.936;2022-08-16T08:25:11;11.75;;;6.18;;
22332;SDS011;11334;36.986;-121.936;2022-08-16T08:27:38;13.13;;;7.00;;
22332;SDS011;11334;36.986;-121.936;2022-08-16T08:30:05;9.32;;;6.18;;
22332;SDS011;11334;36.986;-121.936;2022-08-16T08:32:31;9.82;;;6.13;;
22332;SDS011;11334;36.986;-121.936;2022-08-16T08:34:57;13.73;;;6.80;;
22332;SDS011;11334;36.986;-121.936;2022-08-16T08:37:25;11.68;;;6.13;;
22332;SDS011;11334;36.986;-121.936;2022-08-16T08:39:52;8.95;;;5.30;;
22332;SDS011;11334;36.986;-121.936;2022-08-16T08:42:18;9.95;;;5.78;;
22332;SDS011;11334;36.986;-121.936;2022-08-16T08:44:44;8.25;;;5.97;;
22332;SDS011;11334;36.986;-121.936;2022-08-16T08:47:10;10.80;;;5.75;;
22332;SDS011;11334;36.986;-121.936;2022-08-16T08:49:37;9.63;;;6.00;;
22332;SDS011;11334;36.986;-121.936;2022-08-16T08:52:04;10.52;;;6.13;;
22332;SDS011;11334;36.986;-121.936;2022-08-16T08:54:30;9.80;;;6.50;;
22332;SDS011;11334;36.986;-121.936;2022-08-16T08:56:57;10.55;;;5.43;;
22332;SDS011;11334;36.986;-121.936;2022-08-16T08:59:24;7.95;;;5.43;;
22332;SDS011;11334;36.986;-121.936;2022-08-16T09:01:50;8.20;;;6.15;;
22332;SDS011;11334;36.986;-121.936;2022-08-16T09:04:18;10.82;;;6.10;;
22332;SDS011;11334;36.986;-121.936;2022-08-16T09:06:44;11.80;;;6.63;;
22332;SDS011;11334;36.986;-121.936;2022-08-16T09:09:11;10.23;;;6.00;;
22332;SDS011;11334;36.986;-121.936;2022-08-16T09:11:37;11.35;;;5.80;;
22332;SDS011;11334;36.986;-121.936;2022-08-16T09:14:10;11.30;;;6.70;;
22332;SDS011;11334;36.986;-121.936;2022-08-16T09:16:36;9.82;;;5.88;;
22332;SDS011;11334;36.986;-121.936;2022-08-16T09:19:03;12.93;;;6.55;;
22332;SDS011;11334;36.986;-121.936;2022-08-16T09:21:29;8.70;;;6.15;;
22332;SDS011;11334;36.986;-121.936;2022-08-16T09:23:56;9.27;;;5.80;;
22332;SDS011;11334;36.986;-121.936;2022-08-16T09:26:22;12.57;;;7.18;;
22332;SDS011;11334;36.986;-121.936;2022-08-16T09:28:49;9.23;;;6.53;;
22332;SDS011;11334;36.986;-121.936;2022-08-16T09:31:16;11.32;;;5.75;;
22332;SDS011;11334;36.986;-121.936;2022-08-16T09:33:43;10.18;;;6.68;;
22332;SDS011;11334;36.986;-121.936;2022-08-16T09:36:10;7.40;;;6.20;;
22332;SDS011;11334;36.986;-121.936;2022-08-16T09:38:37;8.52;;;6.45;;
22332;SDS011;11334;36.986;-121.936;2022-08-16T09:41:05;10.70;;;6.38;;
22332;SDS011;11334;36.986;-121.936;2022-08-16T09:43:34;13.57;;;6.75;;
22332;SDS011;11334;36.986;-121.936;2022-08-16T09:46:03;9.90;;;7.20;;
22332;SDS011;11334;36.986;-121.936;2022-08-16T09:48:35;10.30;;;6.93;;
22332;SDS011;11334;36.986;-121.936;2022-08-16T09:51:06;12.55;;;7.97;;
22332;SDS011;11334;36.986;-121.936;2022-08-16T09:53:34;13.95;;;8.65;;
22332;SDS011;11334;36.986;-121.936;2022-08-16T09:56:02;18.40;;;9.57;;
22332;SDS011;11334;36.986;-121.936;2022-08-16T09:58:30;13.68;;;8.77;;
22332;SDS011;11334;36.986;-121.936;2022-08-16T10:00:56;13.98;;;8.98;;
22332;SDS011;11334;36.986;-121.936;2022-08-16T10:03:22;14.77;;;10.35;;
22332;SDS011;11334;36.986;-121.936;2022-08-16T10:05:49;19.65;;;11.05;;
22332;SDS011;11334;36.986;-121.936;2022-08-16T10:08:15;21.67;;;10.88;;
22332;SDS011;11334;36.986;-121.936;2022-08-16T10:10:42;17.90;;;11.98;;
22332;SDS011;11334;36.986;-121.936;2022-08-16T10:13:29;20.65;;;12.07;;
22332;SDS011;11334;36.986;-121.936;2022-08-16T10:15:58;22.65;;;12.38;;
22332;SDS011;11334;36.986;-121.936;2022-08-16T10:18:25;22.98;;;12.15;;
22332;SDS011;11334;36.986;-121.936;2022-08-16T10:20:54;18.83;;;12.52;;
22332;SDS011;11334;36.986;-121.936;2022-08-16T10:23:22;28.23;;;13.70;;
22332;SDS011;11334;36.986;-121.936;2022-08-16T10:25:50;21.95;;;13.15;;
22332;SDS011;11334;36.986;-121.936;2022-08-16T10:28:17;25.13;;;14.00;;
22332;SDS011;11334;36.986;-121.936;2022-08-16T10:30:43;20.55;;;12.90;;
22332;SDS011;11334;36.986;-121.936;2022-08-16T10:33:10;20.08;;;12.27;;
22332;SDS011;11334;36.986;-121.936;2022-08-16T10:35:38;16.63;;;11.98;;
22332;SDS011;11334;36.986;-121.936;2022-08-16T10:38:09;17.77;;;11.43;;
22332;SDS011;11334;36.986;-121.936;2022-08-16T10:40:37;20.80;;;11.50;;
22332;SDS011;11334;36.986;-121.936;2022-08-16T10:43:05;16.10;;;11.15;;
22332;SDS011;11334;36.986;-121.936;2022-08-16T10:45:32;16.58;;;11.60;;
22332;SDS011;11334;36.986;-121.936;2022-08-16T10:47:59;12.63;;;9.75;;
22332;SDS011;11334;36.986;-121.936;2022-08-16T10:50:25;18.60;;;11.32;;
22332;SDS011;11334;36.986;-121.936;2022-08-16T10:52:53;14.02;;;11.05;;
22332;SDS011;11334;36.986;-121.936;2022-08-16T10:55:20;14.32;;;10.27;;
22332;SDS011;11334;36.986;-121.936;2022-08-16T10:57:46;15.20;;;11.60;;
22332;SDS011;11334;36.986;-121.936;2022-08-16T11:00:14;19.05;;;11.32;;
22332;SDS011;11334;36.986;-121.936;2022-08-16T11:02:42;17.35;;;11.05;;
22332;SDS011;11334;36.986;-121.936;2022-08-16T11:05:10;13.15;;;10.30;;
22332;SDS011;11334;36.986;-121.936;2022-08-16T11:07:39;15.55;;;10.20;;
22332;SDS011;11334;36.986;-121.936;2022-08-16T11:10:12;14.23;;;10.68;;
22332;SDS011;11334;36.986;-121.936;2022-08-16T11:12:40;14.05;;;10.60;;
22332;SDS011;11334;36.986;-121.936;2022-08-16T11:15:06;14.02;;;10.50;;
22332;SDS011;11334;36.986;-121.936;2022-08-16T11:17:32;18.58;;;12.30;;
22332;SDS011;11334;36.986;-121.936;2022-08-16T11:19:59;17.08;;;11.00;;
22332;SDS011;11334;36.986;-121.936;2022-08-16T11:22:25;14.75;;;10.75;;
22332;SDS011;11334;36.986;-121.936;2022-08-16T11:24:51;15.73;;;9.65;;
22332;SDS011;11334;36.986;-121.936;2022-08-16T11:27:19;14.25;;;11.05;;
22332;SDS011;11334;36.986;-121.936;2022-08-16T11:29:49;16.48;;;11.45;;
22332;SDS011;11334;36.986;-121.936;2022-08-16T11:32:17;19.67;;;11.50;;
22332;SDS011;11334;36.986;-121.936;2022-08-16T11:34:43;22.30;;;11.30;;
22332;SDS011;11334;36.986;-121.936;2022-08-16T11:37:10;19.48;;;11.82;;
22332;SDS011;11334;36.986;-121.936;2022-08-16T11:39:36;19.52;;;11.55;;
22332;SDS011;11334;36.986;-121.936;2022-08-16T11:42:02;19.73;;;11.48;;
22332;SDS011;11334;36.986;-121.936;2022-08-16T11:44:28;17.95;;;11.45;;
22332;SDS011;11334;36.986;-121.936;2022-08-16T11:46:54;17.00;;;11.02;;
22332;SDS011;11334;36.986;-121.936;2022-08-16T11:49:21;13.75;;;9.93;;
22332;SDS011;11334;36.986;-121.936;2022-08-16T11:51:48;15.73;;;10.07;;
22332;SDS011;11334;36.986;-121.936;2022-08-16T11:54:16;15.68;;;10.27;;
22332;SDS011;11334;36.986;-121.936;2022-08-16T11:56:42;12.13;;;9.55;;
22332;SDS011;11334;36.986;-121.936;2022-08-16T11:59:08;16.00;;;10.30;;
22332;SDS011;11334;36.986;-121.936;2022-08-16T12:01:35;16.23;;;9.85;;
22332;SDS011;11334;36.986;-121.936;2022-08-16T12:04:01;15.23;;;9.90;;
22332;SDS011;11334;36.986;-121.936;2022-08-16T12:06:28;13.20;;;9.88;;
22332;SDS011;11334;36.986;-121.936;2022-08-16T12:08:54;14.13;;;10.32;;
22332;SDS011;11334;36.986;-121.936;2022-08-16T12:11:22;14.77;;;9.68;;
22332;SDS011;11334;36.986;-121.936;2022-08-16T12:13:49;16.50;;;10.18;;
22332;SDS011;11334;36.986;-121.936;2022-08-16T12:16:18;12.77;;;8.43;;
22332;SDS011;11334;36.986;-121.936;2022-08-16T12:18:47;14.15;;;9.63;;
22332;SDS011;11334;36.986;-121.936;2022-08-16T12:21:14;11.77;;;8.70;;
22332;SDS011;11334;36.986;-121.936;2022-08-16T12:23:41;12.45;;;9.38;;
22332;SDS011;11334;36.986;-121.936;2022-08-16T12:26:07;13.32;;;9.18;;
22332;SDS011;11334;36.986;-121.936;2022-08-16T12:28:34;12.02;;;9.00;;
22332;SDS011;11334;36.986;-121.936;2022-08-16T12:31:00;9.55;;;7.95;;
22332;SDS011;11334;36.986;-121.936;2022-08-16T12:33:26;12.18;;;9.18;;
22332;SDS011;11334;36.986;-121.936;2022-08-16T12:35:52;11.57;;;8.02;;
22332;SDS011;11334;36.986;-121.936;2022-08-16T12:38:19;11.90;;;8.98;;
22332;SDS011;11334;36.986;-121.936;2022-08-16T12:40:46;9.98;;;8.70;;
22332;SDS011;11334;36.986;-121.936;2022-08-16T12:43:15;10.55;;;8.25;;
22332;SDS011;11334;36.986;-121.936;2022-08-16T12:45:53;8.75;;;7.28;;
22332;SDS011;11334;36.986;-121.936;2022-08-16T12:48:22;7.47;;;6.78;;
22332;SDS011;11334;36.986;-121.936;2022-08-16T12:51:11;7.07;;;5.97;;
22332;SDS011;11334;36.986;-121.936;2022-08-16T12:53:40;7.00;;;6.10;;
22332;SDS011;11334;36.986;-121.936;2022-08-16T12:56:06;8.43;;;6.35;;
22332;SDS011;11334;36.986;-121.936;2022-08-16T12:58:36;8.15;;;5.70;;
22332;SDS011;11334;36.986;-121.936;2022-08-16T13:01:03;9.32;;;6.55;;
22332;SDS011;11334;36.986;-121.936;2022-08-16T13:03:31;7.20;;;5.97;;
22332;SDS011;11334;36.986;-121.936;2022-08-16T13:05:57;7.75;;;6.40;;
22332;SDS011;11334;36.986;-121.936;2022-08-16T13:08:23;7.13;;;6.45;;
22332;SDS011;11334;36.986;-121.936;2022-08-16T13:10:49;8.63;;;6.45;;
22332;SDS011;11334;36.986;-121.936;2022-08-16T13:13:18;10.27;;;5.65;;
22332;SDS011;11334;36.986;-121.936;2022-08-16T13:15:52;7.43;;;6.30;;
22332;SDS011;11334;36.986;-121.936;2022-08-16T13:18:21;7.13;;;6.43;;
22332;SDS011;11334;36.986;-121.936;2022-08-16T13:20:49;8.75;;;6.70;;
22332;SDS011;11334;36.986;-121.936;2022-08-16T13:23:16;8.38;;;6.32;;
22332;SDS011;11334;36.986;-121.936;2022-08-16T13:25:43;6.15;;;5.45;;
22332;SDS011;11334;36.986;-121.936;2022-08-16T13:28:12;4.95;;;4.47;;
22332;SDS011;11334;36.986;-121.936;2022-08-16T13:30:41;5.47;;;4.97;;
22332;SDS011;11334;36.986;-121.936;2022-08-16T13:33:10;7.10;;;5.72;;
22332;SDS011;11334;36.986;-121.936;2022-08-16T13:35:38;7.55;;;5.85;;
22332;SDS011;11334;36.986;-121.936;2022-08-16T13:38:05;6.82;;;5.07;;
22332;SDS011;11334;36.986;-121.936;2022-08-16T13:40:31;7.88;;;5.60;;
22332;SDS011;11334;36.986;-121.936;2022-08-16T13:42:58;7.05;;;5.47;;
22332;SDS011;11334;36.986;-121.936;2022-08-16T13:45:25;9.50;;;5.50;;
22332;SDS011;11334;36.986;-121.936;2022-08-16T13:47:52;6.60;;;5.43;;
22332;SDS011;11334;36.986;-121.936;2022-08-16T13:50:19;6.43;;;5.05;;
22332;SDS011;11334;36.986;-121.936;2022-08-16T13:52:45;7.68;;;5.25;;
22332;SDS011;11334;36.986;-121.936;2022-08-16T13:55:12;5.50;;;4.78;;
22332;SDS011;11334;36.986;-121.936;2022-08-16T13:57:39;8.40;;;5.57;;
22332;SDS011;11334;36.986;-121.936;2022-08-16T14:00:06;9.15;;;5.85;;
22332;SDS011;11334;36.986;-121.936;2022-08-16T14:02:34;6.55;;;5.47;;
22332;SDS011;11334;36.986;-121.936;2022-08-16T14:05:01;7.20;;;5.65;;